Terminal Aerodrome Forecast
Issued by NWS

Home | Current Version | Previous Version | Text Only | Print | Product List | Glossary On
Versions: 1 2 3 4 5 6 7 8 9 10 11 12 13 14 15 16 17 18 19 20 21
000
FTUS43 KLSX 271900 AAA
TAFCPS
TAF AMD
KCPS 271918Z 2719/2818 32010KT P6SM BKN035
     FM272300 31006KT P6SM SCT025
     FM280300 VRB04KT P6SM BKN070
     FM281400 15010KT P6SM SCT080=

USA.gov is the U.S. government's official web portal to all federal, state and local government web resources and services.